createdAt,value
2023-05-02T00:00:57.191Z,10.40
2023-05-02T00:03:23.812Z,10.42
2023-05-02T00:05:50.391Z,10.39
2023-05-02T00:08:16.842Z,10.42
2023-05-02T00:10:43.345Z,10.47
2023-05-02T00:13:10.062Z,10.45
2023-05-02T00:15:36.588Z,10.44
2023-05-02T00:18:03.079Z,10.45
2023-05-02T00:20:29.615Z,10.43
2023-05-02T00:22:57.147Z,10.45
2023-05-02T00:25:23.706Z,10.47
2023-05-02T00:27:51.281Z,10.52
2023-05-02T00:30:18.625Z,10.50
2023-05-02T00:32:45.477Z,10.50
2023-05-02T00:35:12.009Z,10.53
2023-05-02T00:37:39.097Z,10.51
2023-05-02T00:40:07.940Z,10.53
2023-05-02T00:42:36.112Z,10.57
2023-05-02T00:45:06.781Z,10.57
2023-05-02T00:47:33.775Z,10.54
2023-05-02T00:50:01.384Z,10.57
2023-05-02T00:52:28.823Z,10.56
2023-05-02T00:54:55.600Z,10.58
2023-05-02T00:57:22.848Z,10.55
2023-05-02T00:59:51.012Z,10.53
2023-05-02T01:02:36.683Z,10.55
2023-05-02T01:05:21.026Z,10.51
2023-05-02T01:08:15.010Z,10.51
2023-05-02T01:10:41.477Z,10.51
2023-05-02T01:13:12.167Z,10.47
2023-05-02T01:15:40.804Z,10.48
2023-05-02T01:18:12.216Z,10.48
2023-05-02T01:20:42.405Z,10.46
2023-05-02T01:23:23.526Z,10.36
2023-05-02T01:25:57.019Z,10.31
2023-05-02T01:28:30.731Z,10.26
2023-05-02T01:30:57.974Z,10.25
2023-05-02T01:33:27.680Z,10.21
2023-05-02T01:35:56.017Z,10.16
2023-05-02T01:38:25.373Z,10.16
2023-05-02T01:40:52.850Z,10.14
2023-05-02T01:43:21.248Z,10.17
2023-05-02T01:45:50.757Z,10.19
2023-05-02T01:48:19.307Z,10.16
2023-05-02T01:50:47.723Z,10.15
2023-05-02T01:53:15.385Z,10.11
2023-05-02T01:55:45.104Z,10.14
2023-05-02T01:58:14.115Z,10.10
2023-05-02T02:00:42.000Z,10.00
2023-05-02T02:03:09.776Z,9.96
2023-05-02T02:05:37.734Z,9.96
2023-05-02T02:08:04.771Z,9.96
2023-05-02T02:10:36.920Z,9.96
2023-05-02T02:13:31.037Z,9.95
2023-05-02T02:16:01.822Z,9.94
2023-05-02T02:18:29.889Z,9.95
2023-05-02T02:20:59.746Z,9.93
2023-05-02T02:23:28.908Z,9.94
2023-05-02T02:25:57.013Z,9.95
2023-05-02T02:28:23.777Z,9.94
2023-05-02T02:30:50.309Z,9.91
2023-05-02T02:33:17.288Z,9.90
2023-05-02T02:35:52.769Z,9.87
2023-05-02T02:38:43.240Z,9.84
2023-05-02T02:41:16.550Z,9.80
2023-05-02T02:44:12.924Z,9.77
2023-05-02T02:46:51.857Z,9.79
2023-05-02T02:49:32.501Z,9.79
2023-05-02T02:52:15.593Z,9.77
2023-05-02T02:54:50.065Z,9.79
2023-05-02T02:57:21.194Z,9.76
2023-05-02T03:00:12.386Z,9.72
2023-05-02T03:02:42.599Z,9.74
2023-05-02T03:05:11.117Z,9.68
2023-05-02T03:07:37.576Z,9.67
2023-05-02T03:10:05.109Z,9.67
2023-05-02T03:12:31.837Z,9.66
2023-05-02T03:15:14.530Z,9.65
2023-05-02T03:17:41.085Z,9.64
2023-05-02T03:20:07.962Z,9.67
2023-05-02T03:22:34.420Z,9.64
2023-05-02T03:25:00.901Z,9.62
2023-05-02T03:27:28.365Z,9.61
2023-05-02T03:29:54.890Z,9.60
2023-05-02T03:32:21.487Z,9.58
2023-05-02T03:34:48.060Z,9.54
2023-05-02T03:37:14.526Z,9.56
2023-05-02T03:39:40.999Z,9.55
2023-05-02T03:42:07.496Z,9.53
2023-05-02T03:44:33.944Z,9.53
2023-05-02T03:47:00.696Z,9.52
2023-05-02T03:49:27.257Z,9.49
2023-05-02T03:51:53.712Z,9.50
2023-05-02T03:54:20.236Z,9.46
2023-05-02T03:56:47.052Z,9.43
2023-05-02T03:59:14.953Z,9.46
2023-05-02T04:01:41.563Z,9.39
2023-05-02T04:04:08.642Z,9.40
2023-05-02T04:06:35.528Z,9.40
2023-05-02T04:09:02.420Z,9.38
2023-05-02T04:11:28.918Z,9.36
2023-05-02T04:13:55.466Z,9.35
2023-05-02T04:16:22.568Z,9.35
2023-05-02T04:18:49.086Z,9.32
2023-05-02T04:21:15.722Z,9.30
2023-05-02T04:23:42.392Z,9.26
2023-05-02T04:26:08.863Z,9.26
2023-05-02T04:28:36.321Z,9.27
2023-05-02T04:31:04.182Z,9.30
2023-05-02T04:33:31.590Z,9.27
2023-05-02T04:35:58.072Z,9.26
2023-05-02T04:38:24.569Z,9.26
2023-05-02T04:40:52.369Z,9.23
2023-05-02T04:43:18.867Z,9.18
2023-05-02T04:45:45.430Z,9.08
2023-05-02T04:48:12.462Z,9.08
2023-05-02T04:50:38.954Z,9.03
2023-05-02T04:53:05.458Z,9.00
2023-05-02T04:55:31.909Z,8.92
2023-05-02T04:57:58.396Z,8.87
2023-05-02T05:00:24.887Z,8.87
2023-05-02T05:02:51.693Z,8.91
2023-05-02T05:05:18.380Z,8.85
2023-05-02T05:07:45.502Z,8.88
2023-05-02T05:10:11.979Z,8.89
2023-05-02T05:12:38.570Z,8.89
2023-05-02T05:15:05.393Z,8.90
2023-05-02T05:17:31.915Z,8.95
2023-05-02T05:19:58.653Z,8.93
2023-05-02T05:22:25.274Z,8.95
2023-05-02T05:24:53.521Z,8.95
2023-05-02T05:27:20.296Z,8.99
2023-05-02T05:29:46.836Z,9.02
2023-05-02T05:32:13.332Z,8.99
2023-05-02T05:34:39.824Z,8.96
2023-05-02T05:37:06.468Z,8.92
2023-05-02T05:39:33.220Z,8.91
2023-05-02T05:42:00.705Z,8.87
2023-05-02T05:44:27.228Z,8.84
2023-05-02T05:46:54.424Z,8.84
2023-05-02T05:49:22.163Z,8.75
2023-05-02T05:51:48.730Z,8.75
2023-05-02T05:54:16.975Z,8.75
2023-05-02T05:56:43.542Z,8.74
2023-05-02T05:59:10.009Z,8.74
2023-05-02T06:01:36.619Z,8.74
2023-05-02T06:04:03.350Z,8.71
2023-05-02T06:06:30.148Z,8.76
2023-05-02T06:08:56.791Z,8.73
2023-05-02T06:11:24.514Z,8.78
2023-05-02T06:13:54.829Z,8.82
2023-05-02T06:16:21.590Z,8.85
2023-05-02T06:18:50.785Z,8.91
2023-05-02T06:21:17.286Z,8.97
2023-05-02T06:23:43.781Z,8.98
2023-05-02T06:26:10.316Z,9.06
2023-05-02T06:28:36.840Z,9.12
2023-05-02T06:31:06.254Z,9.17
2023-05-02T06:33:33.960Z,9.24
2023-05-02T06:36:01.956Z,9.25
2023-05-02T06:38:28.930Z,9.23
2023-05-02T06:40:55.743Z,9.28
2023-05-02T06:43:22.193Z,9.22
2023-05-02T06:45:48.824Z,9.27
2023-05-02T06:48:15.538Z,9.28
2023-05-02T06:50:42.260Z,9.35
2023-05-02T06:53:08.820Z,9.36
2023-05-02T06:55:35.599Z,9.32
2023-05-02T06:58:02.124Z,9.25
2023-05-02T07:00:28.588Z,9.21
2023-05-02T07:02:55.183Z,9.16
2023-05-02T07:05:21.813Z,9.11
2023-05-02T07:07:48.271Z,9.03
2023-05-02T07:10:14.751Z,9.09
2023-05-02T07:12:41.207Z,9.08
2023-05-02T07:15:08.352Z,9.10
2023-05-02T07:17:34.936Z,9.14
2023-05-02T07:20:01.677Z,9.21
2023-05-02T07:22:28.352Z,9.27
2023-05-02T07:25:02.525Z,9.16
2023-05-02T07:27:29.090Z,9.01
2023-05-02T07:29:55.556Z,8.94
2023-05-02T07:32:22.546Z,9.02
2023-05-02T07:34:49.175Z,9.04
2023-05-02T07:37:15.820Z,9.07
2023-05-02T07:39:42.536Z,9.12
2023-05-02T07:42:09.160Z,9.18
2023-05-02T07:44:36.801Z,9.20
2023-05-02T07:47:03.328Z,9.23
2023-05-02T07:49:31.099Z,9.23
2023-05-02T07:51:57.854Z,9.28
2023-05-02T07:54:26.403Z,9.36
2023-05-02T07:56:52.993Z,9.49
2023-05-02T07:59:19.558Z,9.48
2023-05-02T08:01:46.271Z,9.52
2023-05-02T08:04:13.174Z,9.48
2023-05-02T08:06:39.973Z,9.47
2023-05-02T08:09:06.493Z,9.44
2023-05-02T08:11:32.981Z,9.40
2023-05-02T08:13:59.483Z,9.30
2023-05-02T08:16:26.057Z,9.32
2023-05-02T08:18:52.644Z,9.39
2023-05-02T08:21:19.190Z,9.47
2023-05-02T08:23:46.526Z,9.53
2023-05-02T08:26:13.094Z,9.61
2023-05-02T08:28:39.561Z,9.74
2023-05-02T08:31:06.109Z,9.74
2023-05-02T08:33:32.704Z,9.81
2023-05-02T08:36:00.245Z,9.80
2023-05-02T08:38:26.879Z,9.80
2023-05-02T08:40:53.358Z,9.86
2023-05-02T08:43:20.804Z,9.94
2023-05-02T08:45:49.807Z,10.15
2023-05-02T08:48:17.940Z,10.17
2023-05-02T08:50:48.077Z,10.20
2023-05-02T08:53:14.738Z,10.38
2023-05-02T08:55:42.323Z,10.44
2023-05-02T08:58:10.637Z,10.45
2023-05-02T09:00:42.506Z,10.49
2023-05-02T09:03:23.755Z,10.58
2023-05-02T09:05:57.447Z,10.63
2023-05-02T09:08:24.640Z,10.73
2023-05-02T09:10:51.835Z,10.96
2023-05-02T09:13:43.971Z,11.10
2023-05-02T09:16:15.713Z,11.11
2023-05-02T09:18:45.492Z,11.01
2023-05-02T09:21:20.559Z,10.93
2023-05-02T09:23:53.650Z,10.85
2023-05-02T09:26:21.663Z,10.71
2023-05-02T09:28:49.131Z,10.69
2023-05-02T09:31:43.686Z,10.76
2023-05-02T09:34:11.851Z,10.93
2023-05-02T09:36:43.686Z,10.98
2023-05-02T09:39:13.368Z,10.99
2023-05-02T09:41:47.139Z,11.09
2023-05-02T09:44:27.795Z,11.38
2023-05-02T09:46:56.299Z,11.62
2023-05-02T09:49:42.381Z,11.69
2023-05-02T09:52:16.706Z,11.65
2023-05-02T09:54:43.845Z,11.43
2023-05-02T09:57:11.211Z,11.41
2023-05-02T09:59:39.664Z,11.44
2023-05-02T10:02:07.585Z,11.50
2023-05-02T10:04:34.617Z,11.84
2023-05-02T10:07:02.878Z,12.18
2023-05-02T10:09:32.553Z,12.24
2023-05-02T10:12:06.761Z,11.89
2023-05-02T10:14:39.264Z,11.45
2023-05-02T10:17:13.175Z,11.27
2023-05-02T10:20:05.794Z,11.28
2023-05-02T10:22:35.132Z,11.68
2023-05-02T10:25:03.664Z,12.12
2023-05-02T10:27:32.257Z,12.44
2023-05-02T10:30:00.561Z,12.33
2023-05-02T10:32:32.741Z,12.23
2023-05-02T10:35:04.431Z,12.03
2023-05-02T10:37:35.798Z,11.70
2023-05-02T10:40:03.288Z,11.67
2023-05-02T10:42:30.774Z,12.03
2023-05-02T10:44:58.051Z,12.11
2023-05-02T10:47:26.931Z,11.85
2023-05-02T10:49:56.021Z,11.66
2023-05-02T10:52:34.185Z,11.45
2023-05-02T10:55:21.417Z,11.65
2023-05-02T10:58:08.103Z,12.02
2023-05-02T11:00:34.953Z,12.06
2023-05-02T11:03:02.272Z,11.92
2023-05-02T11:05:29.249Z,12.11
2023-05-02T11:08:22.804Z,12.44
2023-05-02T11:10:49.770Z,12.19
2023-05-02T11:13:16.333Z,12.12
2023-05-02T11:15:42.843Z,12.29
2023-05-02T11:18:13.524Z,12.38
2023-05-02T11:20:41.198Z,12.37
2023-05-02T11:23:22.880Z,12.31
2023-05-02T11:25:50.759Z,12.34
2023-05-02T11:28:44.482Z,12.31
2023-05-02T11:31:29.289Z,12.57
2023-05-02T11:34:04.648Z,12.48
2023-05-02T11:36:35.212Z,12.43
2023-05-02T11:39:05.314Z,12.66
2023-05-02T11:41:44.440Z,12.68
2023-05-02T11:44:10.909Z,12.35
2023-05-02T11:46:38.692Z,12.07
2023-05-02T11:49:07.021Z,11.93
2023-05-02T11:51:35.680Z,12.22
2023-05-02T11:54:02.575Z,12.62
2023-05-02T11:56:29.126Z,12.64
2023-05-02T11:59:00.048Z,12.12
2023-05-02T12:01:26.583Z,12.11
2023-05-02T12:04:10.406Z,12.27
2023-05-02T12:06:36.987Z,12.14
2023-05-02T12:09:13.616Z,12.40
2023-05-02T12:11:40.099Z,12.39
2023-05-02T12:14:07.136Z,12.51
2023-05-02T12:16:34.162Z,12.63
2023-05-02T12:19:01.419Z,12.82
2023-05-02T12:21:33.090Z,12.94
2023-05-02T12:24:01.730Z,12.91
2023-05-02T12:26:30.864Z,12.72
2023-05-02T12:28:58.998Z,12.76
2023-05-02T12:31:28.081Z,12.80
2023-05-02T12:33:57.858Z,12.31
2023-05-02T12:36:24.911Z,12.37
2023-05-02T12:38:54.468Z,12.61
2023-05-02T12:41:51.534Z,12.73
2023-05-02T12:44:36.373Z,12.64
2023-05-02T12:47:02.881Z,12.76
2023-05-02T12:49:29.525Z,12.77
2023-05-02T12:51:56.378Z,12.68
2023-05-02T12:54:23.183Z,12.80
2023-05-02T12:56:52.164Z,12.95
2023-05-02T12:59:29.658Z,12.89
2023-05-02T13:01:56.578Z,12.91
2023-05-02T13:04:36.959Z,13.02
2023-05-02T13:07:03.456Z,12.97
2023-05-02T13:09:29.930Z,13.02
2023-05-02T13:11:57.050Z,12.96
2023-05-02T13:14:23.531Z,13.03
2023-05-02T13:16:50.377Z,13.08
2023-05-02T13:19:16.891Z,13.02
2023-05-02T13:21:43.403Z,13.05
2023-05-02T13:24:10.067Z,13.30
2023-05-02T13:26:36.734Z,13.40
2023-05-02T13:29:03.259Z,13.32
2023-05-02T13:31:30.035Z,13.19
2023-05-02T13:33:56.575Z,13.29
2023-05-02T13:36:24.419Z,13.49
2023-05-02T13:38:50.889Z,13.72
2023-05-02T13:41:17.441Z,13.76
2023-05-02T13:43:44.075Z,13.78
2023-05-02T13:46:10.792Z,13.97
2023-05-02T13:48:37.475Z,14.18
2023-05-02T13:51:04.014Z,14.49
2023-05-02T13:53:30.600Z,14.59
2023-05-02T13:55:57.059Z,14.68
2023-05-02T13:58:23.590Z,14.30
2023-05-02T14:00:50.117Z,13.85
2023-05-02T14:03:17.648Z,13.83
2023-05-02T14:05:44.414Z,14.11
2023-05-02T14:08:11.281Z,13.73
2023-05-02T14:10:38.365Z,13.63
2023-05-02T14:13:05.361Z,13.91
2023-05-02T14:15:32.057Z,13.93
2023-05-02T14:17:58.567Z,14.03
2023-05-02T14:20:25.176Z,14.08
2023-05-02T14:22:51.853Z,14.07
2023-05-02T14:25:20.466Z,13.82
2023-05-02T14:27:47.412Z,13.50
2023-05-02T14:30:13.922Z,13.91
2023-05-02T14:32:40.447Z,14.13
2023-05-02T14:35:07.276Z,14.70
2023-05-02T14:37:33.725Z,14.93
2023-05-02T14:40:00.459Z,15.20
2023-05-02T14:42:27.135Z,15.49
2023-05-02T14:44:53.704Z,15.47
2023-05-02T14:47:20.305Z,15.49
2023-05-02T14:49:46.839Z,15.32
2023-05-02T14:52:13.360Z,15.28
2023-05-02T14:54:39.813Z,15.28
2023-05-02T14:57:07.649Z,15.46
2023-05-02T14:59:36.008Z,15.88
2023-05-02T15:02:02.661Z,15.91
2023-05-02T15:04:30.585Z,15.84
2023-05-02T15:06:58.413Z,15.72
2023-05-02T15:09:26.658Z,15.55
2023-05-02T15:11:53.546Z,15.73
2023-05-02T15:14:19.999Z,15.87
2023-05-02T15:16:46.846Z,15.84
2023-05-02T15:19:13.697Z,15.64
2023-05-02T15:21:40.244Z,15.70
2023-05-02T15:24:06.875Z,15.62
2023-05-02T15:26:33.406Z,15.52
2023-05-02T15:28:59.906Z,15.62
2023-05-02T15:31:26.511Z,16.26
2023-05-02T15:33:52.970Z,16.42
2023-05-02T15:36:19.439Z,16.37
2023-05-02T15:38:45.924Z,16.99
2023-05-02T15:41:12.393Z,16.87
2023-05-02T15:43:38.960Z,16.51
2023-05-02T15:46:05.498Z,16.33
2023-05-02T15:48:35.269Z,16.63
2023-05-02T15:51:02.828Z,16.76
2023-05-02T15:53:29.701Z,16.35
2023-05-02T15:55:56.189Z,15.75
2023-05-02T15:58:22.742Z,15.81
2023-05-02T16:00:49.287Z,15.92
2023-05-02T16:03:16.006Z,16.20
2023-05-02T16:05:42.599Z,16.11
2023-05-02T16:08:09.215Z,15.86
2023-05-02T16:10:36.647Z,15.73
2023-05-02T16:13:03.336Z,15.47
2023-05-02T16:15:30.500Z,14.71
2023-05-02T16:17:57.374Z,14.32
2023-05-02T16:20:24.050Z,13.91
2023-05-02T16:22:51.360Z,13.83
2023-05-02T16:25:18.688Z,13.69
2023-05-02T16:27:45.223Z,13.53
2023-05-02T16:30:13.062Z,13.33
2023-05-02T16:32:39.801Z,13.34
2023-05-02T16:35:08.230Z,13.24
2023-05-02T16:37:35.334Z,13.26
2023-05-02T16:40:02.916Z,13.05
2023-05-02T16:42:29.793Z,12.80
2023-05-02T16:44:57.269Z,12.78
2023-05-02T16:47:24.174Z,12.78
2023-05-02T16:49:57.856Z,12.52
2023-05-02T16:52:25.730Z,12.37
2023-05-02T16:54:52.334Z,12.26
2023-05-02T16:57:20.838Z,12.09
2023-05-02T16:59:49.195Z,11.96
2023-05-02T17:02:16.290Z,11.86
2023-05-02T17:04:43.006Z,12.02
2023-05-02T17:07:11.715Z,12.10
2023-05-02T17:09:39.027Z,12.08
2023-05-02T17:12:12.855Z,11.95
2023-05-02T17:14:42.343Z,11.92
2023-05-02T17:17:09.399Z,11.92
2023-05-02T17:19:36.717Z,11.82
2023-05-02T17:22:05.240Z,11.92
2023-05-02T17:24:32.346Z,11.88
2023-05-02T17:26:58.842Z,11.85
2023-05-02T17:29:25.641Z,11.85
2023-05-02T17:31:52.156Z,11.86
2023-05-02T17:34:18.692Z,12.04
2023-05-02T17:36:46.342Z,12.08
2023-05-02T17:39:13.486Z,12.54
2023-05-02T17:41:40.119Z,12.36
2023-05-02T17:44:06.747Z,12.14
2023-05-02T17:46:33.494Z,12.38
2023-05-02T17:49:00.961Z,12.60
2023-05-02T17:51:27.930Z,12.94
2023-05-02T17:53:54.484Z,12.58
2023-05-02T17:56:21.047Z,12.21
2023-05-02T17:58:47.683Z,11.85
2023-05-02T18:01:14.314Z,11.56
2023-05-02T18:03:41.294Z,11.43
2023-05-02T18:06:08.176Z,11.37
2023-05-02T18:08:34.964Z,11.31
2023-05-02T18:11:03.196Z,11.50
2023-05-02T18:13:30.135Z,11.62
2023-05-02T18:16:01.460Z,11.38
2023-05-02T18:18:28.147Z,11.01
2023-05-02T18:20:55.736Z,10.76
2023-05-02T18:23:22.218Z,10.57
2023-05-02T18:25:48.733Z,10.43
2023-05-02T18:28:15.202Z,10.34
2023-05-02T18:30:41.726Z,10.16
2023-05-02T18:33:09.024Z,10.06
2023-05-02T18:35:35.661Z,10.05
2023-05-02T18:38:02.290Z,9.94
2023-05-02T18:40:28.836Z,9.90
2023-05-02T18:42:55.355Z,9.88
2023-05-02T18:45:22.002Z,9.89
2023-05-02T18:47:51.038Z,9.83
2023-05-02T18:50:18.155Z,9.69
2023-05-02T18:52:44.611Z,9.65
2023-05-02T18:55:11.488Z,9.46
2023-05-02T18:57:38.010Z,9.40
2023-05-02T19:00:06.389Z,9.43
2023-05-02T19:02:33.621Z,9.35
2023-05-02T19:05:00.747Z,9.32
2023-05-02T19:07:27.942Z,9.30
2023-05-02T19:09:54.444Z,9.25
2023-05-02T19:12:20.963Z,9.20
2023-05-02T19:14:50.297Z,9.20
2023-05-02T19:17:16.964Z,9.11
2023-05-02T19:19:43.542Z,9.09
2023-05-02T19:22:10.065Z,8.98
2023-05-02T19:24:36.616Z,8.91
2023-05-02T19:27:06.784Z,8.91
2023-05-02T19:29:34.236Z,8.87
2023-05-02T19:32:00.925Z,8.81
2023-05-02T19:34:28.231Z,8.77
2023-05-02T19:36:54.912Z,8.72
2023-05-02T19:39:21.673Z,8.71
2023-05-02T19:41:49.948Z,8.74
2023-05-02T19:44:18.021Z,8.71
2023-05-02T19:46:44.544Z,8.67
2023-05-02T19:49:11.084Z,8.63
2023-05-02T19:51:37.766Z,8.53
2023-05-02T19:54:04.411Z,8.52
2023-05-02T19:56:30.992Z,8.51
2023-05-02T19:58:58.610Z,8.49
2023-05-02T20:01:31.208Z,8.44
2023-05-02T20:03:58.172Z,8.46
2023-05-02T20:06:24.768Z,8.42
2023-05-02T20:08:52.481Z,8.35
2023-05-02T20:11:19.026Z,8.37
2023-05-02T20:13:45.872Z,8.28
2023-05-02T20:16:13.738Z,8.31
2023-05-02T20:18:40.323Z,8.29
2023-05-02T20:21:06.908Z,8.29
2023-05-02T20:23:33.427Z,8.37
2023-05-02T20:25:59.924Z,8.32
2023-05-02T20:28:26.466Z,8.29
2023-05-02T20:30:52.950Z,8.24
2023-05-02T20:33:19.829Z,8.20
2023-05-02T20:35:53.689Z,8.24
2023-05-02T20:38:20.373Z,8.17
2023-05-02T20:40:46.857Z,8.18
2023-05-02T20:43:14.234Z,8.14
2023-05-02T20:45:40.833Z,8.06
2023-05-02T20:48:07.405Z,8.05
2023-05-02T20:50:33.944Z,7.95
2023-05-02T20:53:00.546Z,7.92
2023-05-02T20:55:27.574Z,7.85
2023-05-02T20:57:54.074Z,7.87
2023-05-02T21:00:23.666Z,7.78
2023-05-02T21:02:50.340Z,7.70
2023-05-02T21:05:17.137Z,7.58
2023-05-02T21:07:44.730Z,7.54
2023-05-02T21:10:11.459Z,7.53
2023-05-02T21:12:37.982Z,7.43
2023-05-02T21:15:05.046Z,7.33
2023-05-02T21:17:31.663Z,7.28
2023-05-02T21:19:58.137Z,7.22
2023-05-02T21:22:24.609Z,7.26
2023-05-02T21:24:51.115Z,7.18
2023-05-02T21:27:18.165Z,7.15
2023-05-02T21:29:44.692Z,7.04
2023-05-02T21:32:11.272Z,7.02
2023-05-02T21:34:38.119Z,7.04
2023-05-02T21:37:04.622Z,7.06
2023-05-02T21:39:31.105Z,7.04
2023-05-02T21:41:57.608Z,7.07
2023-05-02T21:44:24.420Z,7.09
2023-05-02T21:46:51.398Z,7.08
2023-05-02T21:49:17.885Z,7.03
2023-05-02T21:51:44.323Z,7.06
2023-05-02T21:54:10.805Z,6.97
2023-05-02T21:56:37.385Z,6.90
2023-05-02T21:59:03.870Z,6.86
2023-05-02T22:01:30.462Z,6.76
2023-05-02T22:03:58.160Z,6.78
2023-05-02T22:06:25.082Z,6.76
2023-05-02T22:08:52.799Z,6.65
2023-05-02T22:11:21.620Z,6.59
2023-05-02T22:13:48.519Z,6.47
2023-05-02T22:16:15.930Z,6.41
2023-05-02T22:18:45.126Z,6.28
2023-05-02T22:21:12.219Z,6.24
2023-05-02T22:23:38.911Z,6.20
2023-05-02T22:26:05.481Z,6.15
2023-05-02T22:28:31.974Z,6.10
2023-05-02T22:30:58.442Z,6.08
2023-05-02T22:33:25.107Z,6.03
2023-05-02T22:35:51.671Z,5.99
2023-05-02T22:38:19.770Z,5.98
2023-05-02T22:40:46.556Z,5.93
2023-05-02T22:43:13.009Z,5.95
2023-05-02T22:45:39.480Z,6.02
2023-05-02T22:48:07.023Z,6.03
2023-05-02T22:50:33.945Z,5.95
2023-05-02T22:53:03.755Z,5.87
2023-05-02T22:55:30.692Z,5.81
2023-05-02T22:57:58.014Z,5.75
2023-05-02T23:00:24.952Z,5.71
2023-05-02T23:02:51.729Z,5.64
2023-05-02T23:05:18.776Z,5.57
2023-05-02T23:07:45.335Z,5.51
2023-05-02T23:10:11.842Z,5.43
2023-05-02T23:12:38.596Z,5.40
2023-05-02T23:15:05.452Z,5.33
2023-05-02T23:17:31.937Z,5.28
2023-05-02T23:19:58.818Z,5.24
2023-05-02T23:22:25.463Z,5.17
2023-05-02T23:24:51.937Z,5.11
2023-05-02T23:27:18.367Z,5.06
2023-05-02T23:29:46.074Z,5.01
2023-05-02T23:32:12.642Z,5.04
2023-05-02T23:34:39.207Z,5.00
2023-05-02T23:37:06.942Z,4.98
2023-05-02T23:39:33.715Z,4.90
2023-05-02T23:42:00.777Z,4.88
2023-05-02T23:44:27.282Z,4.90
2023-05-02T23:46:53.803Z,4.80
2023-05-02T23:49:21.337Z,4.80
2023-05-02T23:51:47.939Z,4.72
2023-05-02T23:54:14.561Z,4.68
2023-05-02T23:56:40.984Z,4.68
2023-05-02T23:59:07.486Z,4.67
